sensor_id;sensor_type;location;lat;lon;timestamp;temperature;humidity
56308;DHT22;42217;50.422;7.210;2023-07-29T00:01:34;18.30;99.90
56308;DHT22;42217;50.422;7.210;2023-07-29T00:04:00;18.30;99.90
56308;DHT22;42217;50.422;7.210;2023-07-29T00:06:26;18.30;99.90
56308;DHT22;42217;50.422;7.210;2023-07-29T00:08:51;18.30;99.90
56308;DHT22;42217;50.422;7.210;2023-07-29T00:11:20;18.40;99.90
56308;DHT22;42217;50.422;7.210;2023-07-29T00:13:46;18.50;99.90
56308;DHT22;42217;50.422;7.210;2023-07-29T00:16:12;18.50;99.90
56308;DHT22;42217;50.422;7.210;2023-07-29T00:18:38;18.60;99.90
56308;DHT22;42217;50.422;7.210;2023-07-29T00:21:04;18.60;99.90
56308;DHT22;42217;50.422;7.210;2023-07-29T00:23:29;18.50;99.90
56308;DHT22;42217;50.422;7.210;2023-07-29T00:25:55;18.50;99.90
56308;DHT22;42217;50.422;7.210;2023-07-29T00:28:21;18.50;99.90
56308;DHT22;42217;50.422;7.210;2023-07-29T00:30:46;18.50;99.90
56308;DHT22;42217;50.422;7.210;2023-07-29T00:33:12;18.50;99.90
56308;DHT22;42217;50.422;7.210;2023-07-29T00:35:37;18.60;99.90
56308;DHT22;42217;50.422;7.210;2023-07-29T00:38:03;18.60;99.90
56308;DHT22;42217;50.422;7.210;2023-07-29T00:40:29;18.60;99.90
56308;DHT22;42217;50.422;7.210;2023-07-29T00:42:55;18.60;99.90
56308;DHT22;42217;50.422;7.210;2023-07-29T00:45:21;18.60;99.90
56308;DHT22;42217;50.422;7.210;2023-07-29T00:47:47;18.60;99.90
56308;DHT22;42217;50.422;7.210;2023-07-29T00:50:14;18.60;99.90
56308;DHT22;42217;50.422;7.210;2023-07-29T00:52:40;18.70;99.90
56308;DHT22;42217;50.422;7.210;2023-07-29T00:55:07;18.70;99.90
56308;DHT22;42217;50.422;7.210;2023-07-29T00:57:33;18.70;99.90
56308;DHT22;42217;50.422;7.210;2023-07-29T01:00:00;18.70;99.90
56308;DHT22;42217;50.422;7.210;2023-07-29T01:02:26;18.70;99.90
56308;DHT22;42217;50.422;7.210;2023-07-29T01:04:57;18.70;99.90
56308;DHT22;42217;50.422;7.210;2023-07-29T01:07:53;18.70;99.90
56308;DHT22;42217;50.422;7.210;2023-07-29T01:10:58;18.60;99.90
56308;DHT22;42217;50.422;7.210;2023-07-29T01:16:10;18.50;99.90
56308;DHT22;42217;50.422;7.210;2023-07-29T01:18:39;18.40;99.90
56308;DHT22;42217;50.422;7.210;2023-07-29T01:21:10;18.40;99.90
56308;DHT22;42217;50.422;7.210;2023-07-29T01:23:36;18.40;99.90
56308;DHT22;42217;50.422;7.210;2023-07-29T01:26:03;18.40;99.90
56308;DHT22;42217;50.422;7.210;2023-07-29T01:28:29;18.30;99.90
56308;DHT22;42217;50.422;7.210;2023-07-29T01:31:23;18.30;99.90
56308;DHT22;42217;50.422;7.210;2023-07-29T01:33:59;18.20;99.90
56308;DHT22;42217;50.422;7.210;2023-07-29T01:36:28;18.20;99.90
56308;DHT22;42217;50.422;7.210;2023-07-29T01:38:56;18.20;99.90
56308;DHT22;42217;50.422;7.210;2023-07-29T01:41:23;18.10;99.90
56308;DHT22;42217;50.422;7.210;2023-07-29T01:43:50;18.10;99.90
56308;DHT22;42217;50.422;7.210;2023-07-29T01:46:16;18.10;99.90
56308;DHT22;42217;50.422;7.210;2023-07-29T01:48:42;18.20;99.90
56308;DHT22;42217;50.422;7.210;2023-07-29T01:51:10;18.20;99.90
56308;DHT22;42217;50.422;7.210;2023-07-29T01:53:35;18.20;99.90
56308;DHT22;42217;50.422;7.210;2023-07-29T01:56:02;18.30;99.90
56308;DHT22;42217;50.422;7.210;2023-07-29T01:58:28;18.60;99.90
56308;DHT22;42217;50.422;7.210;2023-07-29T02:00:53;18.60;99.90
56308;DHT22;42217;50.422;7.210;2023-07-29T02:03:19;18.70;99.90
56308;DHT22;42217;50.422;7.210;2023-07-29T02:05:44;18.60;99.90
56308;DHT22;42217;50.422;7.210;2023-07-29T02:08:11;18.50;99.90
56308;DHT22;42217;50.422;7.210;2023-07-29T02:10:37;18.40;99.90
56308;DHT22;42217;50.422;7.210;2023-07-29T02:13:03;18.50;99.90
56308;DHT22;42217;50.422;7.210;2023-07-29T02:15:29;18.50;99.90
56308;DHT22;42217;50.422;7.210;2023-07-29T02:17:55;18.50;99.90
56308;DHT22;42217;50.422;7.210;2023-07-29T02:20:20;18.50;99.90
56308;DHT22;42217;50.422;7.210;2023-07-29T02:22:46;18.50;99.90
56308;DHT22;42217;50.422;7.210;2023-07-29T02:25:14;18.50;99.90
56308;DHT22;42217;50.422;7.210;2023-07-29T02:27:39;18.50;99.90
56308;DHT22;42217;50.422;7.210;2023-07-29T02:30:05;18.50;99.90
56308;DHT22;42217;50.422;7.210;2023-07-29T02:32:31;18.40;99.90
56308;DHT22;42217;50.422;7.210;2023-07-29T02:34:57;18.50;99.90
56308;DHT22;42217;50.422;7.210;2023-07-29T02:37:23;18.50;99.90
56308;DHT22;42217;50.422;7.210;2023-07-29T02:39:48;18.50;99.90
56308;DHT22;42217;50.422;7.210;2023-07-29T02:42:14;18.50;99.90
56308;DHT22;42217;50.422;7.210;2023-07-29T02:44:40;18.50;99.90
56308;DHT22;42217;50.422;7.210;2023-07-29T02:47:05;18.40;99.90
56308;DHT22;42217;50.422;7.210;2023-07-29T02:49:31;18.40;99.90
56308;DHT22;42217;50.422;7.210;2023-07-29T02:51:57;18.30;99.90
56308;DHT22;42217;50.422;7.210;2023-07-29T02:54:22;18.30;99.90
56308;DHT22;42217;50.422;7.210;2023-07-29T02:56:50;18.20;99.90
56308;DHT22;42217;50.422;7.210;2023-07-29T02:59:18;18.10;99.90
56308;DHT22;42217;50.422;7.210;2023-07-29T03:01:44;17.90;99.90
56308;DHT22;42217;50.422;7.210;2023-07-29T03:04:09;17.80;99.90
56308;DHT22;42217;50.422;7.210;2023-07-29T03:06:38;17.90;99.90
56308;DHT22;42217;50.422;7.210;2023-07-29T03:09:04;18.00;99.90
56308;DHT22;42217;50.422;7.210;2023-07-29T03:11:30;18.00;99.90
56308;DHT22;42217;50.422;7.210;2023-07-29T03:13:56;18.10;99.90
56308;DHT22;42217;50.422;7.210;2023-07-29T03:16:22;18.10;99.90
56308;DHT22;42217;50.422;7.210;2023-07-29T03:18:49;18.00;99.90
56308;DHT22;42217;50.422;7.210;2023-07-29T03:21:15;18.00;99.90
56308;DHT22;42217;50.422;7.210;2023-07-29T03:23:40;18.10;99.90
56308;DHT22;42217;50.422;7.210;2023-07-29T03:26:06;18.00;99.90
56308;DHT22;42217;50.422;7.210;2023-07-29T03:28:42;17.90;99.90
56308;DHT22;42217;50.422;7.210;2023-07-29T03:31:09;18.00;99.90
56308;DHT22;42217;50.422;7.210;2023-07-29T03:33:35;18.00;99.90
56308;DHT22;42217;50.422;7.210;2023-07-29T03:36:01;18.10;99.90
56308;DHT22;42217;50.422;7.210;2023-07-29T03:38:26;18.10;99.90
56308;DHT22;42217;50.422;7.210;2023-07-29T03:40:53;18.20;99.90
56308;DHT22;42217;50.422;7.210;2023-07-29T03:43:19;18.30;99.90
56308;DHT22;42217;50.422;7.210;2023-07-29T03:45:44;18.30;99.90
56308;DHT22;42217;50.422;7.210;2023-07-29T03:48:10;18.30;99.90
56308;DHT22;42217;50.422;7.210;2023-07-29T03:50:36;18.30;99.90
56308;DHT22;42217;50.422;7.210;2023-07-29T03:53:03;18.30;99.90
56308;DHT22;42217;50.422;7.210;2023-07-29T03:55:29;18.30;99.90
56308;DHT22;42217;50.422;7.210;2023-07-29T03:57:58;18.30;99.90
56308;DHT22;42217;50.422;7.210;2023-07-29T04:00:24;18.20;99.90
56308;DHT22;42217;50.422;7.210;2023-07-29T04:02:50;18.30;99.90
56308;DHT22;42217;50.422;7.210;2023-07-29T04:05:16;18.30;99.90
56308;DHT22;42217;50.422;7.210;2023-07-29T04:07:41;18.40;99.90
56308;DHT22;42217;50.422;7.210;2023-07-29T04:10:07;18.40;99.90
56308;DHT22;42217;50.422;7.210;2023-07-29T04:12:33;18.40;99.90
56308;DHT22;42217;50.422;7.210;2023-07-29T04:14:59;18.50;99.90
56308;DHT22;42217;50.422;7.210;2023-07-29T04:17:25;18.50;99.90
56308;DHT22;42217;50.422;7.210;2023-07-29T04:19:51;18.60;99.90
56308;DHT22;42217;50.422;7.210;2023-07-29T04:22:16;18.70;99.90
56308;DHT22;42217;50.422;7.210;2023-07-29T04:24:42;18.90;99.90
56308;DHT22;42217;50.422;7.210;2023-07-29T04:27:08;18.90;99.90
56308;DHT22;42217;50.422;7.210;2023-07-29T04:29:34;18.90;99.90
56308;DHT22;42217;50.422;7.210;2023-07-29T04:32:01;18.90;99.90
56308;DHT22;42217;50.422;7.210;2023-07-29T04:34:27;19.00;99.90
56308;DHT22;42217;50.422;7.210;2023-07-29T04:36:53;19.00;99.90
56308;DHT22;42217;50.422;7.210;2023-07-29T04:39:18;19.00;99.90
56308;DHT22;42217;50.422;7.210;2023-07-29T04:41:44;19.00;99.90
56308;DHT22;42217;50.422;7.210;2023-07-29T04:44:10;18.90;99.90
56308;DHT22;42217;50.422;7.210;2023-07-29T04:46:36;18.90;99.90
56308;DHT22;42217;50.422;7.210;2023-07-29T04:49:02;18.80;99.90
56308;DHT22;42217;50.422;7.210;2023-07-29T04:51:28;18.60;99.90
56308;DHT22;42217;50.422;7.210;2023-07-29T04:53:54;18.50;99.90
56308;DHT22;42217;50.422;7.210;2023-07-29T04:56:20;18.50;99.90
56308;DHT22;42217;50.422;7.210;2023-07-29T04:58:45;18.40;99.90
56308;DHT22;42217;50.422;7.210;2023-07-29T05:01:11;18.30;99.90
56308;DHT22;42217;50.422;7.210;2023-07-29T05:03:37;18.20;99.90
56308;DHT22;42217;50.422;7.210;2023-07-29T05:06:05;18.10;99.90
56308;DHT22;42217;50.422;7.210;2023-07-29T05:08:31;18.00;99.90
56308;DHT22;42217;50.422;7.210;2023-07-29T05:10:56;18.10;99.90
56308;DHT22;42217;50.422;7.210;2023-07-29T05:13:22;18.20;99.90
56308;DHT22;42217;50.422;7.210;2023-07-29T05:15:49;18.30;99.90
56308;DHT22;42217;50.422;7.210;2023-07-29T05:18:15;18.20;99.90
56308;DHT22;42217;50.422;7.210;2023-07-29T05:20:41;18.10;99.90
56308;DHT22;42217;50.422;7.210;2023-07-29T05:23:07;18.10;99.90
56308;DHT22;42217;50.422;7.210;2023-07-29T05:25:32;18.20;99.90
56308;DHT22;42217;50.422;7.210;2023-07-29T05:28:00;18.10;99.90
56308;DHT22;42217;50.422;7.210;2023-07-29T05:30:26;18.00;99.90
56308;DHT22;42217;50.422;7.210;2023-07-29T05:32:56;18.20;99.90
56308;DHT22;42217;50.422;7.210;2023-07-29T05:35:22;18.20;99.90
56308;DHT22;42217;50.422;7.210;2023-07-29T05:37:48;18.00;99.90
56308;DHT22;42217;50.422;7.210;2023-07-29T05:40:14;18.20;99.90
56308;DHT22;42217;50.422;7.210;2023-07-29T05:42:40;18.30;99.90
56308;DHT22;42217;50.422;7.210;2023-07-29T05:45:06;18.30;99.90
56308;DHT22;42217;50.422;7.210;2023-07-29T05:47:32;18.40;99.90
56308;DHT22;42217;50.422;7.210;2023-07-29T05:49:57;18.40;99.90
56308;DHT22;42217;50.422;7.210;2023-07-29T05:52:23;18.30;99.90
56308;DHT22;42217;50.422;7.210;2023-07-29T05:54:49;18.40;99.90
56308;DHT22;42217;50.422;7.210;2023-07-29T05:57:14;18.30;99.90
56308;DHT22;42217;50.422;7.210;2023-07-29T05:59:40;18.20;99.90
56308;DHT22;42217;50.422;7.210;2023-07-29T06:02:06;18.20;99.90
56308;DHT22;42217;50.422;7.210;2023-07-29T06:04:32;18.20;99.90
56308;DHT22;42217;50.422;7.210;2023-07-29T06:06:58;18.30;99.90
56308;DHT22;42217;50.422;7.210;2023-07-29T06:09:24;18.30;99.90
56308;DHT22;42217;50.422;7.210;2023-07-29T06:11:51;18.30;99.90
56308;DHT22;42217;50.422;7.210;2023-07-29T06:14:17;18.30;99.90
56308;DHT22;42217;50.422;7.210;2023-07-29T06:16:42;18.40;99.90
56308;DHT22;42217;50.422;7.210;2023-07-29T06:19:08;18.50;99.90
56308;DHT22;42217;50.422;7.210;2023-07-29T06:21:34;18.70;99.90
56308;DHT22;42217;50.422;7.210;2023-07-29T06:24:01;18.80;99.90
56308;DHT22;42217;50.422;7.210;2023-07-29T06:26:26;18.80;99.90
56308;DHT22;42217;50.422;7.210;2023-07-29T06:28:52;19.00;99.90
56308;DHT22;42217;50.422;7.210;2023-07-29T06:31:18;19.10;99.90
56308;DHT22;42217;50.422;7.210;2023-07-29T06:33:43;19.10;99.90
56308;DHT22;42217;50.422;7.210;2023-07-29T06:36:09;19.10;99.90
56308;DHT22;42217;50.422;7.210;2023-07-29T06:38:34;19.30;99.90
56308;DHT22;42217;50.422;7.210;2023-07-29T06:41:00;19.40;99.90
56308;DHT22;42217;50.422;7.210;2023-07-29T06:43:26;19.30;99.90
56308;DHT22;42217;50.422;7.210;2023-07-29T06:45:51;19.40;99.90
56308;DHT22;42217;50.422;7.210;2023-07-29T06:48:17;19.40;99.90
56308;DHT22;42217;50.422;7.210;2023-07-29T06:50:44;19.40;99.90
56308;DHT22;42217;50.422;7.210;2023-07-29T06:53:10;19.50;99.90
56308;DHT22;42217;50.422;7.210;2023-07-29T06:55:35;19.60;99.90
56308;DHT22;42217;50.422;7.210;2023-07-29T06:58:01;19.60;99.90
56308;DHT22;42217;50.422;7.210;2023-07-29T07:00:27;19.60;99.90
56308;DHT22;42217;50.422;7.210;2023-07-29T07:02:53;19.70;99.90
56308;DHT22;42217;50.422;7.210;2023-07-29T07:05:18;19.70;99.90
56308;DHT22;42217;50.422;7.210;2023-07-29T07:07:44;19.80;99.90
56308;DHT22;42217;50.422;7.210;2023-07-29T07:10:10;20.20;99.90
56308;DHT22;42217;50.422;7.210;2023-07-29T07:12:36;20.60;99.90
56308;DHT22;42217;50.422;7.210;2023-07-29T07:15:02;21.00;99.90
56308;DHT22;42217;50.422;7.210;2023-07-29T07:17:27;21.40;99.90
56308;DHT22;42217;50.422;7.210;2023-07-29T07:19:53;21.60;99.90
56308;DHT22;42217;50.422;7.210;2023-07-29T07:22:19;21.80;99.90
56308;DHT22;42217;50.422;7.210;2023-07-29T07:24:45;22.00;99.90
56308;DHT22;42217;50.422;7.210;2023-07-29T07:27:10;22.10;99.90
56308;DHT22;42217;50.422;7.210;2023-07-29T07:29:36;22.00;99.90
56308;DHT22;42217;50.422;7.210;2023-07-29T07:32:02;22.30;99.90
56308;DHT22;42217;50.422;7.210;2023-07-29T07:34:28;22.50;99.90
56308;DHT22;42217;50.422;7.210;2023-07-29T07:36:53;22.80;99.90
56308;DHT22;42217;50.422;7.210;2023-07-29T07:39:19;22.90;99.90
56308;DHT22;42217;50.422;7.210;2023-07-29T07:41:45;22.80;99.90
56308;DHT22;42217;50.422;7.210;2023-07-29T07:44:10;22.60;99.90
56308;DHT22;42217;50.422;7.210;2023-07-29T07:46:41;22.30;99.90
56308;DHT22;42217;50.422;7.210;2023-07-29T07:49:06;22.40;99.90
56308;DHT22;42217;50.422;7.210;2023-07-29T07:51:32;22.50;99.90
56308;DHT22;42217;50.422;7.210;2023-07-29T07:53:58;22.60;99.90
56308;DHT22;42217;50.422;7.210;2023-07-29T07:56:23;22.60;99.90
56308;DHT22;42217;50.422;7.210;2023-07-29T07:58:49;22.50;99.90
56308;DHT22;42217;50.422;7.210;2023-07-29T08:01:15;22.30;99.90
56308;DHT22;42217;50.422;7.210;2023-07-29T08:03:40;22.20;99.90
56308;DHT22;42217;50.422;7.210;2023-07-29T08:06:06;22.10;99.90
56308;DHT22;42217;50.422;7.210;2023-07-29T08:08:32;22.20;99.90
56308;DHT22;42217;50.422;7.210;2023-07-29T08:10:57;22.50;99.90
56308;DHT22;42217;50.422;7.210;2023-07-29T08:13:24;22.70;99.90
56308;DHT22;42217;50.422;7.210;2023-07-29T08:15:51;23.10;99.90
56308;DHT22;42217;50.422;7.210;2023-07-29T08:18:17;23.50;99.90
56308;DHT22;42217;50.422;7.210;2023-07-29T08:20:57;23.70;99.90
56308;DHT22;42217;50.422;7.210;2023-07-29T08:23:25;24.10;99.90
56308;DHT22;42217;50.422;7.210;2023-07-29T08:25:54;24.30;99.90
56308;DHT22;42217;50.422;7.210;2023-07-29T08:28:22;24.30;99.90
56308;DHT22;42217;50.422;7.210;2023-07-29T08:30:48;24.40;99.90
56308;DHT22;42217;50.422;7.210;2023-07-29T08:33:14;24.50;99.90
56308;DHT22;42217;50.422;7.210;2023-07-29T08:35:40;24.40;99.90
56308;DHT22;42217;50.422;7.210;2023-07-29T08:38:05;24.20;99.90
56308;DHT22;42217;50.422;7.210;2023-07-29T08:40:32;23.90;99.90
56308;DHT22;42217;50.422;7.210;2023-07-29T08:43:03;23.80;99.90
56308;DHT22;42217;50.422;7.210;2023-07-29T08:45:33;23.50;99.90
56308;DHT22;42217;50.422;7.210;2023-07-29T08:48:02;23.30;99.90
56308;DHT22;42217;50.422;7.210;2023-07-29T08:50:29;22.90;99.90
56308;DHT22;42217;50.422;7.210;2023-07-29T08:52:56;22.50;99.90
56308;DHT22;42217;50.422;7.210;2023-07-29T08:55:22;22.00;99.90
56308;DHT22;42217;50.422;7.210;2023-07-29T08:57:47;21.60;99.90
56308;DHT22;42217;50.422;7.210;2023-07-29T09:00:13;21.40;99.90
56308;DHT22;42217;50.422;7.210;2023-07-29T09:02:39;21.20;99.90
56308;DHT22;42217;50.422;7.210;2023-07-29T09:05:05;21.10;99.90
56308;DHT22;42217;50.422;7.210;2023-07-29T09:07:34;21.20;99.90
56308;DHT22;42217;50.422;7.210;2023-07-29T09:10:00;21.40;99.90
56308;DHT22;42217;50.422;7.210;2023-07-29T09:12:26;21.70;99.90
56308;DHT22;42217;50.422;7.210;2023-07-29T09:14:52;21.90;99.90
56308;DHT22;42217;50.422;7.210;2023-07-29T09:17:18;22.00;99.90
56308;DHT22;42217;50.422;7.210;2023-07-29T09:19:50;22.10;99.90
56308;DHT22;42217;50.422;7.210;2023-07-29T09:22:19;22.00;99.90
56308;DHT22;42217;50.422;7.210;2023-07-29T09:24:46;21.90;99.90
56308;DHT22;42217;50.422;7.210;2023-07-29T09:27:28;21.70;99.90
56308;DHT22;42217;50.422;7.210;2023-07-29T09:30:00;21.50;99.90
56308;DHT22;42217;50.422;7.210;2023-07-29T09:32:25;21.60;99.90
56308;DHT22;42217;50.422;7.210;2023-07-29T09:34:51;21.90;99.90
56308;DHT22;42217;50.422;7.210;2023-07-29T09:37:21;22.10;99.90
56308;DHT22;42217;50.422;7.210;2023-07-29T09:39:48;22.30;99.90
56308;DHT22;42217;50.422;7.210;2023-07-29T09:42:18;22.30;99.90
56308;DHT22;42217;50.422;7.210;2023-07-29T09:44:45;22.50;99.90
56308;DHT22;42217;50.422;7.210;2023-07-29T09:47:22;22.50;99.90
56308;DHT22;42217;50.422;7.210;2023-07-29T09:49:48;22.70;99.90
56308;DHT22;42217;50.422;7.210;2023-07-29T09:52:22;22.70;99.90
56308;DHT22;42217;50.422;7.210;2023-07-29T09:54:48;23.10;99.90
56308;DHT22;42217;50.422;7.210;2023-07-29T09:57:15;23.20;99.90
56308;DHT22;42217;50.422;7.210;2023-07-29T09:59:41;23.30;99.90
56308;DHT22;42217;50.422;7.210;2023-07-29T10:02:15;23.60;99.90
56308;DHT22;42217;50.422;7.210;2023-07-29T10:04:45;24.20;99.90
56308;DHT22;42217;50.422;7.210;2023-07-29T10:07:11;24.60;99.90
56308;DHT22;42217;50.422;7.210;2023-07-29T10:09:39;25.00;99.90
56308;DHT22;42217;50.422;7.210;2023-07-29T10:12:06;25.20;99.90
56308;DHT22;42217;50.422;7.210;2023-07-29T10:14:32;25.20;99.90
56308;DHT22;42217;50.422;7.210;2023-07-29T10:16:59;24.90;99.90
56308;DHT22;42217;50.422;7.210;2023-07-29T10:19:25;25.10;99.90
56308;DHT22;42217;50.422;7.210;2023-07-29T10:21:52;25.30;99.90
56308;DHT22;42217;50.422;7.210;2023-07-29T10:24:24;25.40;99.90
56308;DHT22;42217;50.422;7.210;2023-07-29T10:26:57;25.60;99.90
56308;DHT22;42217;50.422;7.210;2023-07-29T10:29:24;25.90;99.90
56308;DHT22;42217;50.422;7.210;2023-07-29T10:31:53;26.00;99.90
56308;DHT22;42217;50.422;7.210;2023-07-29T10:34:21;26.00;99.90
56308;DHT22;42217;50.422;7.210;2023-07-29T10:36:48;26.10;99.90
56308;DHT22;42217;50.422;7.210;2023-07-29T10:39:14;26.10;99.90
56308;DHT22;42217;50.422;7.210;2023-07-29T10:42:00;26.10;99.90
56308;DHT22;42217;50.422;7.210;2023-07-29T10:44:48;26.10;99.90
56308;DHT22;42217;50.422;7.210;2023-07-29T10:49:49;25.50;99.90
56308;DHT22;42217;50.422;7.210;2023-07-29T10:54:59;24.70;99.90
56308;DHT22;42217;50.422;7.210;2023-07-29T10:57:36;24.60;99.90
56308;DHT22;42217;50.422;7.210;2023-07-29T11:00:03;24.80;99.90
56308;DHT22;42217;50.422;7.210;2023-07-29T11:02:37;25.00;99.90
56308;DHT22;42217;50.422;7.210;2023-07-29T11:05:17;25.20;99.90
56308;DHT22;42217;50.422;7.210;2023-07-29T11:07:44;25.30;99.90
56308;DHT22;42217;50.422;7.210;2023-07-29T11:10:12;25.20;99.90
56308;DHT22;42217;50.422;7.210;2023-07-29T11:12:51;25.10;99.90
56308;DHT22;42217;50.422;7.210;2023-07-29T11:15:28;25.40;99.90
56308;DHT22;42217;50.422;7.210;2023-07-29T11:17:59;25.40;99.90
56308;DHT22;42217;50.422;7.210;2023-07-29T11:20:33;25.60;99.90
56308;DHT22;42217;50.422;7.210;2023-07-29T11:23:00;25.80;99.90
56308;DHT22;42217;50.422;7.210;2023-07-29T11:25:28;25.70;99.90
56308;DHT22;42217;50.422;7.210;2023-07-29T11:27:56;26.10;99.90
56308;DHT22;42217;50.422;7.210;2023-07-29T11:30:22;26.70;99.90
56308;DHT22;42217;50.422;7.210;2023-07-29T11:32:55;27.00;99.90
56308;DHT22;42217;50.422;7.210;2023-07-29T11:35:22;27.20;99.90
56308;DHT22;42217;50.422;7.210;2023-07-29T11:37:49;27.50;99.90
56308;DHT22;42217;50.422;7.210;2023-07-29T11:40:18;27.40;98.80
56308;DHT22;42217;50.422;7.210;2023-07-29T11:42:45;27.00;99.10
56308;DHT22;42217;50.422;7.210;2023-07-29T11:45:14;26.90;98.90
56308;DHT22;42217;50.422;7.210;2023-07-29T11:47:40;26.50;99.60
56308;DHT22;42217;50.422;7.210;2023-07-29T11:50:12;25.90;99.90
56308;DHT22;42217;50.422;7.210;2023-07-29T11:52:43;25.50;99.90
56308;DHT22;42217;50.422;7.210;2023-07-29T11:55:09;25.00;99.90
56308;DHT22;42217;50.422;7.210;2023-07-29T11:57:38;23.70;1.00
56308;DHT22;42217;50.422;7.210;2023-07-29T12:00:07;23.20;1.00
56308;DHT22;42217;50.422;7.210;2023-07-29T12:02:37;22.90;9.20
56308;DHT22;42217;50.422;7.210;2023-07-29T12:05:04;22.80;15.40
56308;DHT22;42217;50.422;7.210;2023-07-29T12:07:30;22.70;44.40
56308;DHT22;42217;50.422;7.210;2023-07-29T12:09:56;23.30;99.90
56308;DHT22;42217;50.422;7.210;2023-07-29T12:12:23;23.60;99.90
56308;DHT22;42217;50.422;7.210;2023-07-29T12:14:49;23.50;99.90
56308;DHT22;42217;50.422;7.210;2023-07-29T12:17:15;23.00;99.90
56308;DHT22;42217;50.422;7.210;2023-07-29T12:19:41;22.60;99.90
56308;DHT22;42217;50.422;7.210;2023-07-29T12:22:09;22.20;99.90
56308;DHT22;42217;50.422;7.210;2023-07-29T12:24:40;21.80;99.90
56308;DHT22;42217;50.422;7.210;2023-07-29T12:27:13;21.90;99.90
56308;DHT22;42217;50.422;7.210;2023-07-29T12:29:43;22.00;99.90
56308;DHT22;42217;50.422;7.210;2023-07-29T12:32:09;22.30;99.90
56308;DHT22;42217;50.422;7.210;2023-07-29T12:34:37;22.40;99.90
56308;DHT22;42217;50.422;7.210;2023-07-29T12:37:05;22.80;99.90
56308;DHT22;42217;50.422;7.210;2023-07-29T12:39:33;23.30;99.90
56308;DHT22;42217;50.422;7.210;2023-07-29T12:42:00;23.40;99.90
56308;DHT22;42217;50.422;7.210;2023-07-29T12:44:30;23.20;99.90
56308;DHT22;42217;50.422;7.210;2023-07-29T12:46:56;23.00;99.90
56308;DHT22;42217;50.422;7.210;2023-07-29T12:49:22;23.40;99.90
56308;DHT22;42217;50.422;7.210;2023-07-29T12:51:48;23.80;99.90
56308;DHT22;42217;50.422;7.210;2023-07-29T12:54:14;24.30;99.90
56308;DHT22;42217;50.422;7.210;2023-07-29T12:56:39;25.10;99.90
56308;DHT22;42217;50.422;7.210;2023-07-29T12:59:05;26.00;99.90
56308;DHT22;42217;50.422;7.210;2023-07-29T13:01:31;26.70;99.90
56308;DHT22;42217;50.422;7.210;2023-07-29T13:03:57;27.40;99.90
56308;DHT22;42217;50.422;7.210;2023-07-29T13:06:23;28.30;99.90
56308;DHT22;42217;50.422;7.210;2023-07-29T13:08:49;28.70;99.90
56308;DHT22;42217;50.422;7.210;2023-07-29T13:11:18;29.10;99.90
56308;DHT22;42217;50.422;7.210;2023-07-29T13:13:44;29.10;99.70
56308;DHT22;42217;50.422;7.210;2023-07-29T13:16:11;29.70;99.10
56308;DHT22;42217;50.422;7.210;2023-07-29T13:18:37;31.10;95.70
56308;DHT22;42217;50.422;7.210;2023-07-29T13:21:06;32.10;91.50
56308;DHT22;42217;50.422;7.210;2023-07-29T13:23:32;32.10;90.10
56308;DHT22;42217;50.422;7.210;2023-07-29T13:25:58;31.40;89.90
56308;DHT22;42217;50.422;7.210;2023-07-29T13:28:24;31.10;89.50
56308;DHT22;42217;50.422;7.210;2023-07-29T13:30:49;31.20;90.20
56308;DHT22;42217;50.422;7.210;2023-07-29T13:33:15;31.90;89.90
56308;DHT22;42217;50.422;7.210;2023-07-29T13:35:42;31.10;88.90
56308;DHT22;42217;50.422;7.210;2023-07-29T13:38:08;29.70;90.20
56308;DHT22;42217;50.422;7.210;2023-07-29T13:40:34;28.40;92.10
56308;DHT22;42217;50.422;7.210;2023-07-29T13:43:00;27.90;92.80
56308;DHT22;42217;50.422;7.210;2023-07-29T13:45:26;27.70;93.00
56308;DHT22;42217;50.422;7.210;2023-07-29T13:47:52;27.80;93.40
56308;DHT22;42217;50.422;7.210;2023-07-29T13:50:18;29.30;92.70
56308;DHT22;42217;50.422;7.210;2023-07-29T13:52:44;29.40;92.30
56308;DHT22;42217;50.422;7.210;2023-07-29T13:55:10;30.10;91.80
56308;DHT22;42217;50.422;7.210;2023-07-29T13:57:37;31.20;90.80
56308;DHT22;42217;50.422;7.210;2023-07-29T14:00:03;31.60;90.10
56308;DHT22;42217;50.422;7.210;2023-07-29T14:02:29;31.50;89.80
56308;DHT22;42217;50.422;7.210;2023-07-29T14:04:56;31.90;88.60
56308;DHT22;42217;50.422;7.210;2023-07-29T14:07:22;32.00;85.90
56308;DHT22;42217;50.422;7.210;2023-07-29T14:09:48;31.20;84.00
56308;DHT22;42217;50.422;7.210;2023-07-29T14:12:13;30.10;85.30
56308;DHT22;42217;50.422;7.210;2023-07-29T14:14:41;28.90;89.20
56308;DHT22;42217;50.422;7.210;2023-07-29T14:17:07;28.60;90.20
56308;DHT22;42217;50.422;7.210;2023-07-29T14:19:34;28.80;90.10
56308;DHT22;42217;50.422;7.210;2023-07-29T14:22:00;28.50;89.50
56308;DHT22;42217;50.422;7.210;2023-07-29T14:24:26;28.10;90.50
56308;DHT22;42217;50.422;7.210;2023-07-29T14:26:52;27.90;90.30
56308;DHT22;42217;50.422;7.210;2023-07-29T14:29:17;28.80;89.90
56308;DHT22;42217;50.422;7.210;2023-07-29T14:31:43;29.90;85.90
56308;DHT22;42217;50.422;7.210;2023-07-29T14:34:09;30.10;82.40
56308;DHT22;42217;50.422;7.210;2023-07-29T14:36:36;30.20;81.50
56308;DHT22;42217;50.422;7.210;2023-07-29T14:39:02;30.20;82.10
56308;DHT22;42217;50.422;7.210;2023-07-29T14:41:27;30.20;80.70
56308;DHT22;42217;50.422;7.210;2023-07-29T14:43:53;29.80;82.80
56308;DHT22;42217;50.422;7.210;2023-07-29T14:46:18;29.90;81.60
56308;DHT22;42217;50.422;7.210;2023-07-29T14:48:44;28.70;84.30
56308;DHT22;42217;50.422;7.210;2023-07-29T14:51:12;28.20;84.60
56308;DHT22;42217;50.422;7.210;2023-07-29T14:53:38;28.20;85.90
56308;DHT22;42217;50.422;7.210;2023-07-29T14:56:04;27.90;86.00
56308;DHT22;42217;50.422;7.210;2023-07-29T14:58:30;27.80;87.20
56308;DHT22;42217;50.422;7.210;2023-07-29T15:00:55;27.60;86.60
56308;DHT22;42217;50.422;7.210;2023-07-29T15:03:21;28.60;86.00
56308;DHT22;42217;50.422;7.210;2023-07-29T15:05:47;30.90;80.80
56308;DHT22;42217;50.422;7.210;2023-07-29T15:08:13;31.00;77.10
56308;DHT22;42217;50.422;7.210;2023-07-29T15:10:38;30.60;78.60
56308;DHT22;42217;50.422;7.210;2023-07-29T15:13:04;29.90;78.50
56308;DHT22;42217;50.422;7.210;2023-07-29T15:15:30;30.00;79.20
56308;DHT22;42217;50.422;7.210;2023-07-29T15:17:55;30.90;78.50
56308;DHT22;42217;50.422;7.210;2023-07-29T15:20:22;30.40;77.40
56308;DHT22;42217;50.422;7.210;2023-07-29T15:22:48;29.20;79.10
56308;DHT22;42217;50.422;7.210;2023-07-29T15:25:13;29.60;94.10
56308;DHT22;42217;50.422;7.210;2023-07-29T15:27:39;30.80;91.10
56308;DHT22;42217;50.422;7.210;2023-07-29T15:30:06;31.40;83.40
56308;DHT22;42217;50.422;7.210;2023-07-29T15:32:32;31.20;80.80
56308;DHT22;42217;50.422;7.210;2023-07-29T15:34:58;32.40;77.00
56308;DHT22;42217;50.422;7.210;2023-07-29T15:37:25;33.50;73.10